Time;durP1;ratioP1;P1;durP2;ratioP2;P2;SDS_P1;SDS_P2;PMS_P1;PMS_P2;Temp;Humidity;BMP_temperature;BMP_pressure;BME280_temperature;BME280_humidity;BME280_pressure;Samples;Min_cycle;Max_cycle;Signal;HPM_P1;HPM_P2
2022/05/06 00:02:07;;;;;;;0.73;0.53;;;11.40;99.90;;;;;;5026398;28;20216;-89
2022/05/06 00:04:38;;;;;;;3.50;1.00;;;11.40;99.90;;;;;;5037920;28;20240;-89
2022/05/06 00:07:11;;;;;;;0.67;0.50;;;11.60;99.90;;;;;;5039175;28;20219;-89
2022/05/06 00:09:45;;;;;;;2.27;0.93;;;11.70;99.90;;;;;;5057737;28;20193;-90
2022/05/06 00:12:19;;;;;;;12.50;0.80;;;11.70;99.90;;;;;;5058134;28;20205;-90
2022/05/06 00:14:50;;;;;;;0.90;0.67;;;11.80;99.90;;;;;;5048824;28;20308;-89
2022/05/06 00:17:29;;;;;;;1.50;0.80;;;11.50;99.90;;;;;;5038959;28;20242;-90
2022/05/06 00:20:00;;;;;;;1.73;1.00;;;11.50;99.90;;;;;;5041994;28;20267;-89
2022/05/06 00:22:32;;;;;;;3.23;0.87;;;11.70;99.90;;;;;;5049343;28;20270;-89
2022/05/06 00:25:03;;;;;;;1.33;0.73;;;11.60;99.90;;;;;;5044688;28;20228;-88
2022/05/06 00:27:36;;;;;;;0.93;0.60;;;11.70;99.90;;;;;;5039940;28;20277;-89
2022/05/06 00:30:09;;;;;;;0.80;0.70;;;11.80;99.90;;;;;;5044822;28;20221;-89
2022/05/06 00:32:44;;;;;;;0.70;0.60;;;11.90;99.90;;;;;;5064716;28;20208;-89
2022/05/06 00:35:17;;;;;;;3.77;0.80;;;11.80;99.90;;;;;;5039799;28;20235;-88
2022/05/06 00:37:48;;;;;;;1.23;0.60;;;11.80;99.90;;;;;;5038766;28;20212;-89
2022/05/06 00:40:19;;;;;;;0.87;0.60;;;11.90;99.90;;;;;;5039159;28;20251;-87
2022/05/06 00:42:51;;;;;;;0.87;0.40;;;11.60;99.90;;;;;;5019926;28;20202;-89
2022/05/06 00:45:33;;;;;;;0.70;0.70;;;11.40;99.90;;;;;;5042028;28;20807;-88
2022/05/06 00:48:07;;;;;;;0.70;0.50;;;11.20;99.90;;;;;;5044818;28;20299;-88
2022/05/06 00:50:39;;;;;;;1.20;0.80;;;11.40;99.90;;;;;;5039134;28;20655;-90
2022/05/06 00:53:11;;;;;;;1.40;0.77;;;11.50;99.90;;;;;;5024557;28;20217;-90
2022/05/06 00:55:42;;;;;;;1.40;0.60;;;11.60;99.90;;;;;;5025317;28;20256;-90
2022/05/06 00:58:15;;;;;;;1.70;0.77;;;11.70;99.90;;;;;;5023687;28;20233;-90
2022/05/06 01:00:46;;;;;;;0.50;0.50;;;11.80;99.90;;;;;;5018379;28;20241;-90
2022/05/06 01:03:19;;;;;;;0.40;0.40;;;11.70;99.90;;;;;;5033494;28;20224;-89
2022/05/06 01:05:52;;;;;;;0.30;0.30;;;11.40;99.90;;;;;;5050357;28;20292;-90
2022/05/06 01:08:24;;;;;;;0.90;0.40;;;11.10;99.90;;;;;;5048442;28;20205;-91
2022/05/06 01:10:57;;;;;;;0.73;0.47;;;10.90;99.90;;;;;;5042087;28;20236;-89
2022/05/06 01:13:29;;;;;;;0.57;0.50;;;11.00;99.90;;;;;;5039273;28;20275;-89
2022/05/06 01:16:01;;;;;;;0.67;0.60;;;11.00;99.90;;;;;;5047702;28;20201;-91
2022/05/06 01:18:36;;;;;;;0.60;0.57;;;11.10;99.90;;;;;;5046850;28;20232;-90
2022/05/06 01:21:11;;;;;;;0.40;0.40;;;11.10;99.90;;;;;;5050969;28;20219;-89
2022/05/06 01:23:45;;;;;;;1.13;0.40;;;11.10;99.90;;;;;;5050649;28;20201;-91
2022/05/06 01:26:17;;;;;;;1.43;0.53;;;10.90;99.90;;;;;;5049143;28;20236;-90
2022/05/06 01:28:50;;;;;;;0.60;0.40;;;10.80;99.90;;;;;;5047571;28;20209;-90
2022/05/06 01:31:24;;;;;;;0.40;0.40;;;10.80;99.90;;;;;;5046220;28;20216;-90
2022/05/06 01:33:56;;;;;;;0.73;0.60;;;10.80;99.90;;;;;;5046278;28;20224;-90
2022/05/06 01:36:30;;;;;;;0.60;0.40;;;10.90;99.90;;;;;;5050235;28;20216;-91
2022/05/06 01:39:06;;;;;;;0.73;0.50;;;11.00;99.90;;;;;;5047090;28;20316;-90
2022/05/06 01:41:40;;;;;;;1.37;0.40;;;11.00;99.90;;;;;;5043486;28;20256;-90
2022/05/06 01:44:15;;;;;;;0.40;0.40;;;11.10;99.90;;;;;;5048369;28;20304;-89
2022/05/06 01:46:47;;;;;;;0.83;0.60;;;11.00;99.90;;;;;;5036611;28;20208;-88
2022/05/06 01:49:21;;;;;;;0.50;0.50;;;11.00;99.90;;;;;;5035237;28;20208;-88
2022/05/06 01:51:53;;;;;;;1.27;0.70;;;11.00;99.90;;;;;;5134358;23;20232;-89
2022/05/06 01:54:26;;;;;;;3.23;0.67;;;11.00;99.90;;;;;;5017133;28;20258;-89
2022/05/06 01:57:00;;;;;;;1.00;0.90;;;11.00;99.90;;;;;;5017252;28;20201;-89
2022/05/06 01:59:33;;;;;;;1.40;0.70;;;10.90;99.90;;;;;;5018426;28;20252;-87
2022/05/06 02:02:05;;;;;;;1.40;1.20;;;10.80;99.90;;;;;;5379145;22;20211;-91
2022/05/06 02:07:27;;;;;;;3.30;1.00;;;10.90;99.90;;;;;;5036600;28;20304;-90
2022/05/06 02:10:00;;;;;;;0.50;0.50;;;11.00;99.90;;;;;;5037460;28;20209;-90
2022/05/06 02:12:34;;;;;;;1.30;0.50;;;10.90;99.90;;;;;;5037419;28;20594;-90
2022/05/06 02:15:07;;;;;;;1.37;0.70;;;10.70;99.90;;;;;;5042826;28;20213;-90
2022/05/06 02:17:40;;;;;;;2.27;1.10;;;10.60;99.90;;;;;;5049120;28;20288;-90
2022/05/06 02:20:13;;;;;;;1.07;0.80;;;10.70;99.90;;;;;;5053616;28;20217;-90
2022/05/06 02:22:45;;;;;;;1.80;0.70;;;10.80;99.90;;;;;;5057203;28;20276;-90
2022/05/06 02:25:18;;;;;;;0.70;0.60;;;10.70;99.90;;;;;;5056260;28;20220;-90
2022/05/06 02:27:52;;;;;;;0.90;0.50;;;10.60;99.90;;;;;;5050521;28;20204;-90
2022/05/06 02:33:23;;;;;;;0.60;0.50;;;10.60;99.90;;;;;;5044808;28;20284;-89
2022/05/06 02:35:55;;;;;;;2.73;1.00;;;10.70;99.90;;;;;;5027462;28;20217;-89
2022/05/06 02:38:28;;;;;;;1.43;0.90;;;10.40;99.90;;;;;;5028757;28;20212;-89
2022/05/06 02:41:02;;;;;;;1.10;0.70;;;10.30;99.90;;;;;;5028610;28;20204;-89
2022/05/06 02:43:35;;;;;;;0.70;0.50;;;10.50;99.90;;;;;;5028930;28;20213;-89
2022/05/06 02:46:06;;;;;;;0.87;0.57;;;10.30;99.90;;;;;;5025677;28;20241;-89
2022/05/06 02:48:39;;;;;;;1.47;0.50;;;10.20;99.90;;;;;;5029033;28;20218;-89
2022/05/06 02:51:11;;;;;;;0.80;0.80;;;10.10;99.90;;;;;;5027845;28;20240;-88
2022/05/06 02:53:43;;;;;;;0.87;0.87;;;10.10;99.90;;;;;;5032824;28;20248;-88
2022/05/06 02:56:17;;;;;;;0.80;0.63;;;10.10;99.90;;;;;;5030795;28;20252;-89
2022/05/06 02:58:48;;;;;;;1.17;0.50;;;10.20;99.90;;;;;;5037938;28;20221;-90
2022/05/06 03:01:19;;;;;;;1.27;0.87;;;10.20;99.90;;;;;;5057441;28;20274;-89
2022/05/06 03:03:51;;;;;;;1.67;0.80;;;10.20;99.90;;;;;;5065281;28;20212;-89
2022/05/06 03:06:23;;;;;;;0.87;0.70;;;10.20;99.90;;;;;;5068189;28;20251;-89
2022/05/06 03:08:56;;;;;;;0.77;0.60;;;10.20;99.90;;;;;;5068760;28;20200;-89
2022/05/06 03:11:31;;;;;;;2.07;0.70;;;10.10;99.90;;;;;;5071564;28;20209;-89
2022/05/06 03:14:03;;;;;;;1.10;0.60;;;10.10;99.90;;;;;;5069162;28;20253;-89
2022/05/06 03:16:34;;;;;;;1.73;0.80;;;10.10;99.90;;;;;;5061153;28;20215;-89
2022/05/06 03:19:06;;;;;;;0.50;0.50;;;10.10;99.90;;;;;;5058941;28;20211;-89
2022/05/06 03:21:38;;;;;;;1.40;0.90;;;10.10;99.90;;;;;;5063700;28;20273;-90
2022/05/06 03:24:10;;;;;;;0.73;0.73;;;10.10;99.90;;;;;;5065389;28;20211;-89
2022/05/06 03:26:47;;;;;;;1.83;1.27;;;10.10;99.90;;;;;;5057918;28;20247;-89
2022/05/06 03:29:18;;;;;;;0.80;0.80;;;10.10;99.90;;;;;;5048739;28;20246;-90
2022/05/06 03:31:52;;;;;;;1.40;1.30;;;10.10;99.90;;;;;;5050026;28;20212;-89
2022/05/06 03:34:24;;;;;;;1.37;1.20;;;10.10;99.90;;;;;;5046915;28;20353;-89
2022/05/06 03:36:57;;;;;;;1.53;1.30;;;10.10;99.90;;;;;;5039499;28;20204;-90
2022/05/06 03:39:28;;;;;;;2.93;1.50;;;10.10;99.90;;;;;;5038635;28;20267;-89
2022/05/06 03:42:05;;;;;;;1.53;1.37;;;10.10;99.90;;;;;;5040452;28;20232;-89
2022/05/06 03:44:39;;;;;;;2.17;1.30;;;10.10;99.90;;;;;;5047796;28;20232;-89
2022/05/06 03:47:10;;;;;;;1.40;1.30;;;10.10;99.90;;;;;;5051192;28;20264;-89
2022/05/06 03:52:29;;;;;;;1.43;1.13;;;10.20;99.90;;;;;;5049174;28;20209;-89
2022/05/06 03:55:00;;;;;;;1.47;0.97;;;10.20;99.90;;;;;;5052813;28;20516;-89
2022/05/06 03:57:34;;;;;;;1.33;1.10;;;10.20;99.90;;;;;;5086843;22;20271;-88
2022/05/06 04:00:07;;;;;;;1.43;0.70;;;10.30;99.90;;;;;;5068507;28;20268;-89
2022/05/06 04:02:38;;;;;;;0.90;0.80;;;10.30;99.90;;;;;;5070087;28;20200;-89
2022/05/06 04:05:14;;;;;;;0.63;0.63;;;10.30;99.90;;;;;;5069963;28;20208;-90
2022/05/06 04:07:46;;;;;;;1.67;1.57;;;10.30;99.90;;;;;;5072269;28;20210;-90
2022/05/06 04:10:20;;;;;;;51.10;11.30;;;10.20;99.90;;;;;;5072967;28;20637;-89
2022/05/06 04:12:55;;;;;;;2.17;0.77;;;10.20;99.90;;;;;;5078425;28;20196;-88
2022/05/06 04:18:02;;;;;;;1.43;1.33;;;10.10;99.90;;;;;;5088392;23;20235;-89
2022/05/06 04:23:31;;;;;;;23.37;7.20;;;10.00;99.90;;;;;;5072140;28;20204;-90
2022/05/06 04:26:05;;;;;;;1.30;0.80;;;10.00;99.90;;;;;;5071769;28;20239;-89
2022/05/06 04:28:43;;;;;;;2.67;1.30;;;9.90;99.90;;;;;;5068163;28;20211;-89
2022/05/06 04:31:17;;;;;;;8.53;4.30;;;9.90;99.90;;;;;;5072108;28;20192;-90
2022/05/06 04:33:48;;;;;;;2.63;0.70;;;9.80;99.90;;;;;;5077475;28;20231;-89
2022/05/06 04:36:19;;;;;;;0.63;0.50;;;9.70;99.90;;;;;;5075571;28;20238;-90
2022/05/06 04:38:50;;;;;;;1.90;0.80;;;9.70;99.90;;;;;;5070349;28;20226;-90
2022/05/06 04:41:24;;;;;;;2.57;0.63;;;9.60;99.90;;;;;;5073241;28;20208;-89
2022/05/06 04:43:59;;;;;;;0.93;0.70;;;9.60;99.90;;;;;;5073558;28;20242;-90
2022/05/06 04:46:31;;;;;;;2.80;2.60;;;9.50;99.90;;;;;;5070783;28;20314;-89
2022/05/06 04:49:03;;;;;;;38.97;12.90;;;9.40;99.90;;;;;;5071383;28;20208;-90
2022/05/06 04:51:35;;;;;;;2.77;0.97;;;9.30;99.90;;;;;;5088430;28;20619;-89
2022/05/06 04:54:11;;;;;;;2.73;0.70;;;9.30;99.90;;;;;;5084988;28;20208;-90
2022/05/06 04:56:43;;;;;;;1.47;0.60;;;9.20;99.90;;;;;;5091437;28;20237;-89
2022/05/06 04:59:17;;;;;;;36.73;3.50;;;9.20;99.90;;;;;;5091450;28;20215;-90
2022/05/06 05:01:48;;;;;;;13.90;4.33;;;9.20;99.90;;;;;;5079446;28;20272;-90
2022/05/06 05:04:20;;;;;;;1.43;0.90;;;9.10;99.90;;;;;;5078456;28;20293;-90
2022/05/06 05:06:52;;;;;;;1.07;0.80;;;9.10;99.90;;;;;;5079076;28;20281;-90
2022/05/06 05:09:23;;;;;;;0.83;0.60;;;9.00;99.90;;;;;;5078570;28;20723;-90
2022/05/06 05:11:54;;;;;;;0.70;0.57;;;8.90;99.90;;;;;;5079122;28;20227;-90
2022/05/06 05:14:27;;;;;;;3.20;0.70;;;8.90;99.90;;;;;;5079832;28;20221;-90
2022/05/06 05:16:58;;;;;;;2.20;0.70;;;8.90;99.90;;;;;;5080186;28;20219;-90
2022/05/06 05:19:30;;;;;;;2.43;0.70;;;8.90;99.90;;;;;;5091945;28;20195;-91
2022/05/06 05:22:01;;;;;;;3.40;0.80;;;8.80;99.90;;;;;;5097559;28;20208;-90
2022/05/06 05:24:32;;;;;;;1.47;0.77;;;8.80;99.90;;;;;;5097201;28;20214;-92
2022/05/06 05:27:04;;;;;;;2.63;1.40;;;8.70;99.90;;;;;;5096949;28;20215;-91
2022/05/06 05:29:37;;;;;;;7.97;5.47;;;8.70;99.90;;;;;;5096714;28;20261;-91
2022/05/06 05:32:10;;;;;;;4.23;1.00;;;8.70;99.90;;;;;;5097708;28;20211;-88
2022/05/06 05:34:43;;;;;;;2.27;0.80;;;8.70;99.90;;;;;;5078904;28;20192;-89
2022/05/06 05:37:16;;;;;;;2.20;0.73;;;8.60;99.90;;;;;;5077783;28;20196;-90
2022/05/06 05:39:55;;;;;;;2.13;0.70;;;8.60;99.90;;;;;;5077279;28;20196;-89
2022/05/06 05:42:28;;;;;;;5.63;1.10;;;8.60;99.90;;;;;;5077462;28;20188;-89
2022/05/06 05:50:39;;;;;;;4.63;1.07;;;8.60;99.90;;;;;;5075114;28;20226;-88
2022/05/06 05:53:11;;;;;;;4.80;1.13;;;8.50;99.90;;;;;;5075928;28;20218;-88
2022/05/06 05:55:48;;;;;;;3.37;1.60;;;8.50;99.90;;;;;;5076334;28;20260;-89
2022/05/06 05:58:20;;;;;;;5.63;1.37;;;8.50;99.90;;;;;;5075683;28;20204;-88
2022/05/06 06:00:54;;;;;;;5.77;1.30;;;8.50;99.90;;;;;;5076591;28;20206;-89
2022/05/06 06:03:26;;;;;;;5.27;1.13;;;8.50;99.90;;;;;;5076313;28;20207;-89
2022/05/06 06:05:58;;;;;;;4.40;1.20;;;8.50;99.90;;;;;;5071949;28;20196;-90
2022/05/06 06:08:29;;;;;;;5.07;1.90;;;8.50;99.90;;;;;;5067718;28;20240;-89
2022/05/06 06:11:01;;;;;;;4.50;1.20;;;8.50;99.90;;;;;;5062379;28;20231;-89
2022/05/06 06:13:33;;;;;;;3.93;1.40;;;8.50;99.90;;;;;;5061067;28;20671;-90
2022/05/06 06:16:07;;;;;;;5.93;2.03;;;8.50;99.90;;;;;;5064294;28;20261;-90
2022/05/06 06:18:39;;;;;;;5.57;1.20;;;8.50;99.90;;;;;;5059582;28;20310;-90
2022/05/06 06:21:11;;;;;;;3.13;1.40;;;8.50;99.90;;;;;;5064728;28;20219;-89
2022/05/06 06:23:42;;;;;;;7.77;1.47;;;8.40;99.90;;;;;;5064145;28;20215;-90
2022/05/06 06:26:13;;;;;;;5.30;1.40;;;8.40;99.90;;;;;;5047907;28;20272;-89
2022/05/06 06:28:46;;;;;;;1.53;1.33;;;8.30;99.90;;;;;;5043151;28;20240;-90
2022/05/06 06:31:20;;;;;;;4.00;2.77;;;8.40;99.90;;;;;;5044453;28;20239;-90
2022/05/06 06:33:52;;;;;;;3.23;1.10;;;8.30;99.90;;;;;;5042858;28;20216;-90
2022/05/06 06:36:23;;;;;;;6.73;1.77;;;8.30;99.90;;;;;;5042323;28;20235;-90
2022/05/06 06:38:55;;;;;;;4.17;1.50;;;8.30;99.90;;;;;;5043893;28;20217;-90
2022/05/06 06:41:27;;;;;;;6.33;2.33;;;8.20;99.90;;;;;;5043846;28;20231;-89
2022/05/06 06:44:00;;;;;;;7.07;2.07;;;8.20;99.90;;;;;;5059110;28;20254;-90
2022/05/06 06:46:38;;;;;;;4.90;1.60;;;8.20;99.90;;;;;;5058928;28;20227;-89
2022/05/06 06:49:11;;;;;;;5.93;1.47;;;8.10;99.90;;;;;;5050138;28;20671;-90
2022/05/06 06:51:43;;;;;;;6.13;1.27;;;8.10;99.90;;;;;;5043246;28;20240;-90
2022/05/06 06:54:15;;;;;;;3.97;1.53;;;8.20;99.90;;;;;;5043524;28;20263;-89
2022/05/06 06:56:49;;;;;;;3.43;1.50;;;8.20;99.90;;;;;;5043786;28;20208;-89
2022/05/06 06:59:20;;;;;;;4.63;1.33;;;8.20;99.90;;;;;;5044917;28;20278;-89
2022/05/06 07:01:58;;;;;;;7.10;3.60;;;8.10;99.90;;;;;;5056307;28;20287;-89
2022/05/06 07:04:29;;;;;;;5.47;1.37;;;8.20;99.90;;;;;;5070846;28;20261;-88
2022/05/06 07:12:36;;;;;;;4.07;1.30;;;8.20;99.90;;;;;;5082904;28;20214;-90
2022/05/06 07:15:08;;;;;;;3.87;1.40;;;8.20;99.90;;;;;;5082083;28;20207;-90
2022/05/06 07:17:41;;;;;;;7.27;1.97;;;8.30;99.90;;;;;;5077762;28;20235;-89
2022/05/06 07:20:13;;;;;;;9.43;1.57;;;8.30;99.90;;;;;;5061006;28;20204;-88
2022/05/06 07:22:46;;;;;;;6.10;1.90;;;8.20;99.90;;;;;;5061858;28;20208;-88
2022/05/06 07:25:19;;;;;;;3.83;1.33;;;8.20;99.90;;;;;;5063457;28;20211;-89
2022/05/06 07:27:50;;;;;;;7.73;1.87;;;8.10;99.90;;;;;;5060442;28;20255;-89
2022/05/06 07:30:22;;;;;;;3.20;1.27;;;8.20;99.90;;;;;;5061547;28;20612;-89
2022/05/06 07:32:55;;;;;;;10.27;1.97;;;8.20;99.90;;;;;;5062699;28;20204;-89
2022/05/06 07:35:26;;;;;;;6.03;1.60;;;8.20;99.90;;;;;;5061619;28;20212;-90
2022/05/06 07:38:00;;;;;;;5.33;1.50;;;8.20;99.90;;;;;;5072109;28;20245;-90
2022/05/06 07:40:32;;;;;;;4.00;1.40;;;8.20;99.90;;;;;;5061749;28;20219;-90
2022/05/06 07:43:04;;;;;;;6.67;1.50;;;8.20;99.90;;;;;;5070616;28;20206;-90
2022/05/06 07:45:40;;;;;;;5.27;1.30;;;8.20;99.90;;;;;;5067283;28;20224;-90
2022/05/06 07:48:15;;;;;;;7.10;2.00;;;8.10;99.90;;;;;;5067698;28;20244;-90
2022/05/06 07:50:48;;;;;;;3.47;1.10;;;8.10;99.90;;;;;;5071662;28;20218;-91
2022/05/06 07:53:19;;;;;;;7.97;1.70;;;8.10;99.90;;;;;;5073718;28;20551;-90
2022/05/06 07:55:52;;;;;;;7.30;1.87;;;8.00;99.90;;;;;;5073992;28;20252;-91
2022/05/06 07:58:23;;;;;;;4.60;1.40;;;8.00;99.90;;;;;;5066636;28;20399;-90
2022/05/06 08:00:54;;;;;;;6.83;1.33;;;8.00;99.90;;;;;;5060048;28;20615;-90
2022/05/06 08:06:16;;;;;;;7.63;1.67;;;7.90;99.90;;;;;;5060756;28;20238;-90
2022/05/06 08:08:47;;;;;;;8.67;1.80;;;7.90;99.90;;;;;;5041568;28;20228;-90
2022/05/06 08:11:19;;;;;;;5.73;1.40;;;7.80;99.90;;;;;;5063100;28;20204;-90
2022/05/06 08:13:51;;;;;;;4.97;1.40;;;7.70;99.90;;;;;;5063304;28;20242;-90
2022/05/06 08:16:23;;;;;;;8.43;2.07;;;7.60;99.90;;;;;;5061940;28;20235;-90
2022/05/06 08:18:57;;;;;;;5.40;1.67;;;7.50;99.90;;;;;;5059631;28;20584;-90
2022/05/06 08:21:29;;;;;;;4.27;1.70;;;7.40;99.90;;;;;;5060683;28;20215;-90
2022/05/06 08:24:03;;;;;;;5.07;1.43;;;7.40;99.90;;;;;;5059302;28;20214;-90
2022/05/06 08:26:34;;;;;;;8.73;1.73;;;7.40;99.90;;;;;;5059621;28;20689;-90
2022/05/06 08:29:07;;;;;;;8.53;1.47;;;7.30;99.90;;;;;;5059299;28;20678;-90
2022/05/06 08:31:39;;;;;;;6.53;1.83;;;7.30;99.90;;;;;;5059234;28;20266;-90
2022/05/06 08:34:14;;;;;;;6.50;1.90;;;7.20;99.90;;;;;;5059721;28;20212;-90
2022/05/06 08:36:47;;;;;;;5.57;1.60;;;7.20;99.90;;;;;;5059970;28;20689;-91
2022/05/06 08:39:18;;;;;;;5.17;2.17;;;7.10;99.90;;;;;;5059795;28;20254;-90
2022/05/06 08:41:50;;;;;;;6.80;1.60;;;7.10;99.90;;;;;;5059842;28;20219;-90
2022/05/06 08:52:50;;;;;;;6.27;1.80;;;7.10;99.90;;;;;;5063174;28;20298;-90
2022/05/06 08:55:22;;;;;;;5.20;1.70;;;7.10;99.90;;;;;;5075508;28;20215;-91
2022/05/06 08:57:53;;;;;;;8.67;1.80;;;7.00;99.90;;;;;;5093834;28;20195;-89
2022/05/06 09:00:26;;;;;;;7.40;1.60;;;7.00;99.90;;;;;;5090131;28;20234;-90
2022/05/06 09:02:57;;;;;;;7.53;1.57;;;7.00;99.90;;;;;;5078210;28;20236;-90
2022/05/06 09:05:31;;;;;;;4.77;1.80;;;7.00;99.90;;;;;;5060532;28;20571;-91
2022/05/06 09:08:04;;;;;;;4.17;1.50;;;6.90;99.90;;;;;;5061742;28;20232;-90
2022/05/06 09:10:35;;;;;;;4.87;1.47;;;6.90;99.90;;;;;;5062338;28;20274;-90
2022/05/06 09:13:08;;;;;;;7.20;1.40;;;6.80;99.90;;;;;;5165746;23;20240;-89
2022/05/06 09:18:29;;;;;;;4.40;1.57;;;6.80;99.90;;;;;;5074801;28;20207;-90
2022/05/06 09:21:14;;;;;;;7.10;1.60;;;6.80;99.90;;;;;;5040887;28;20246;-90
2022/05/06 09:23:45;;;;;;;7.60;1.70;;;6.70;99.90;;;;;;5042141;28;20209;-90
2022/05/06 09:26:20;;;;;;;5.83;1.70;;;6.70;99.90;;;;;;5060048;28;20196;-90
2022/05/06 09:28:52;;;;;;;4.87;1.67;;;6.70;99.90;;;;;;5074964;28;20309;-91
2022/05/06 09:31:29;;;;;;;5.03;1.47;;;6.70;99.90;;;;;;5072613;28;20295;-90
2022/05/06 09:34:11;;;;;;;7.53;1.60;;;6.70;99.90;;;;;;5068866;28;20337;-90
2022/05/06 09:36:45;;;;;;;12.60;1.97;;;6.60;99.90;;;;;;5063649;28;20199;-90
2022/05/06 09:39:16;;;;;;;5.93;1.53;;;6.60;99.90;;;;;;5060492;28;20251;-90
2022/05/06 09:41:48;;;;;;;8.87;1.47;;;6.60;99.90;;;;;;5060428;28;20224;-90
2022/05/06 09:44:25;;;;;;;3.80;1.43;;;6.60;99.90;;;;;;5062166;28;20212;-90
2022/05/06 09:47:11;;;;;;;5.57;1.33;;;6.60;99.90;;;;;;5059060;28;20267;-91
2022/05/06 09:49:43;;;;;;;5.77;1.73;;;6.60;99.90;;;;;;5060471;28;20236;-90
2022/05/06 09:52:17;;;;;;;7.63;1.93;;;6.60;99.90;;;;;;5060107;28;20308;-90
2022/05/06 09:54:49;;;;;;;6.87;2.20;;;6.60;99.90;;;;;;5059918;28;20226;-90
2022/05/06 09:57:20;;;;;;;8.07;1.93;;;6.60;99.90;;;;;;5059381;28;20232;-90
2022/05/06 09:59:51;;;;;;;10.80;1.67;;;6.60;99.90;;;;;;5058476;28;20292;-90
2022/05/06 10:02:22;;;;;;;5.27;2.13;;;6.60;99.90;;;;;;5058328;28;20232;-90
2022/05/06 10:04:56;;;;;;;8.53;1.90;;;6.60;99.90;;;;;;5043622;28;20232;-90
2022/05/06 10:07:31;;;;;;;4.83;1.60;;;6.50;99.90;;;;;;5039094;28;20321;-90
2022/05/06 10:10:05;;;;;;;5.77;1.80;;;6.60;99.90;;;;;;5039000;28;20269;-90
2022/05/06 10:12:40;;;;;;;4.37;1.50;;;6.50;99.90;;;;;;5038529;28;20216;-90
2022/05/06 10:15:14;;;;;;;5.20;1.70;;;6.50;99.90;;;;;;5037404;28;20216;-92
2022/05/06 10:17:56;;;;;;;5.93;2.20;;;6.50;99.90;;;;;;5037683;28;20728;-89
2022/05/06 10:21:01;;;;;;;4.50;1.57;;;6.50;99.90;;;;;;5040620;28;20247;-89
2022/05/06 10:23:52;;;;;;;6.67;2.17;;;6.40;99.90;;;;;;5040369;28;20205;-89
2022/05/06 10:26:45;;;;;;;5.30;1.67;;;6.50;99.90;;;;;;5039080;28;20205;-89
2022/05/06 10:33:04;;;;;;;4.47;1.50;;;6.50;99.90;;;;;;5039502;28;20211;-89
2022/05/06 10:35:44;;;;;;;7.20;1.77;;;6.50;99.90;;;;;;5036495;28;20634;-89
2022/05/06 10:38:23;;;;;;;3.77;1.60;;;6.60;99.90;;;;;;5037050;28;20211;-89
2022/05/06 10:41:09;;;;;;;3.97;1.77;;;6.60;99.90;;;;;;5037108;28;20205;-89
2022/05/06 10:43:54;;;;;;;7.60;1.83;;;6.60;99.90;;;;;;5037701;28;20652;-89
2022/05/06 10:46:39;;;;;;;6.87;1.70;;;6.60;99.90;;;;;;5037139;28;20203;-89
2022/05/06 10:49:50;;;;;;;5.30;1.60;;;6.60;99.90;;;;;;5040158;28;20256;-89
2022/05/06 10:52:41;;;;;;;6.60;1.83;;;6.60;99.90;;;;;;5036575;28;20212;-89
2022/05/06 10:55:15;;;;;;;4.13;1.73;;;6.60;99.90;;;;;;5030045;28;20750;-88
2022/05/06 10:57:56;;;;;;;5.50;1.70;;;6.70;99.90;;;;;;5057246;28;20234;-89
2022/05/06 11:00:30;;;;;;;5.40;1.47;;;6.70;99.90;;;;;;5057349;28;20267;-89
2022/05/06 11:03:00;;;;;;;4.27;1.57;;;6.80;99.90;;;;;;5056346;28;20253;-90
2022/05/06 11:05:33;;;;;;;5.13;1.53;;;6.90;99.90;;;;;;5057122;28;20219;-89
2022/05/06 11:08:07;;;;;;;5.90;1.97;;;6.90;99.90;;;;;;5068490;28;20283;-89
2022/05/06 11:10:39;;;;;;;4.70;1.80;;;6.90;99.90;;;;;;5075865;28;20228;-89
2022/05/06 11:13:32;;;;;;;5.80;1.97;;;7.00;99.90;;;;;;5076050;28;20219;-89
2022/05/06 11:16:09;;;;;;;5.70;1.70;;;7.00;99.90;;;;;;5075755;28;20252;-90
2022/05/06 11:18:47;;;;;;;4.73;1.77;;;7.00;99.90;;;;;;5072394;28;20334;-90
2022/05/06 11:21:28;;;;;;;6.87;1.80;;;7.00;99.90;;;;;;5066406;28;20212;-89
2022/05/06 11:23:59;;;;;;;4.10;1.90;;;7.10;99.90;;;;;;5061540;28;20585;-90
2022/05/06 11:26:31;;;;;;;3.80;1.67;;;7.20;99.90;;;;;;5061603;28;20212;-90
2022/05/06 11:29:05;;;;;;;3.60;1.57;;;7.20;99.90;;;;;;5175274;22;20244;-90
2022/05/06 11:31:36;;;;;;;4.10;1.50;;;7.20;99.90;;;;;;5060309;28;20211;-88
2022/05/06 11:34:10;;;;;;;4.43;1.90;;;7.20;99.90;;;;;;5046901;28;20266;-88
2022/05/06 11:36:48;;;;;;;4.43;1.60;;;7.20;99.90;;;;;;5041451;28;20636;-89
2022/05/06 11:39:19;;;;;;;7.20;1.67;;;7.10;99.90;;;;;;5039508;28;20223;-89
2022/05/06 11:41:51;;;;;;;6.63;1.97;;;7.00;99.90;;;;;;5040182;28;20211;-90
2022/05/06 11:47:31;;;;;;;6.00;1.97;;;7.10;99.90;;;;;;5039659;28;20338;-89
2022/05/06 11:50:02;;;;;;;8.63;1.70;;;7.30;99.90;;;;;;5039710;28;20235;-89
2022/05/06 11:52:37;;;;;;;6.53;2.20;;;7.30;99.90;;;;;;5038463;28;20243;-90
2022/05/06 11:55:10;;;;;;;2.50;1.40;;;7.30;99.90;;;;;;5039618;28;20219;-89
2022/05/06 11:57:42;;;;;;;3.20;1.50;;;7.40;99.90;;;;;;5153368;23;20266;-89
2022/05/06 12:00:17;;;;;;;5.80;1.60;;;7.40;99.90;;;;;;5058409;28;20203;-89
2022/05/06 12:02:51;;;;;;;5.73;1.77;;;7.40;99.90;;;;;;5058782;28;20675;-89
2022/05/06 12:05:23;;;;;;;4.63;1.97;;;7.30;99.90;;;;;;5059215;28;20208;-89
2022/05/06 12:07:54;;;;;;;7.57;1.70;;;7.30;99.90;;;;;;5057723;28;20665;-89
2022/05/06 12:10:26;;;;;;;4.90;1.60;;;7.30;99.90;;;;;;5062412;28;20362;-89
2022/05/06 12:12:59;;;;;;;6.00;2.27;;;7.20;99.90;;;;;;5063006;28;20232;-89
2022/05/06 12:15:38;;;;;;;4.90;1.83;;;7.30;99.90;;;;;;5059484;28;20610;-89
2022/05/06 12:18:11;;;;;;;4.07;1.60;;;7.40;99.90;;;;;;5058419;28;20216;-89
2022/05/06 12:20:46;;;;;;;3.67;1.57;;;7.40;99.90;;;;;;5063889;28;20227;-89
2022/05/06 12:23:27;;;;;;;5.47;1.90;;;7.30;99.90;;;;;;5059393;28;20250;-89
2022/05/06 12:26:00;;;;;;;6.40;2.30;;;7.40;99.90;;;;;;5059082;28;20212;-89
2022/05/06 12:28:31;;;;;;;3.80;1.70;;;7.40;99.90;;;;;;5058675;28;20243;-89
2022/05/06 12:31:08;;;;;;;7.43;2.07;;;7.50;99.90;;;;;;5059128;28;20293;-89
2022/05/06 12:33:45;;;;;;;3.73;1.40;;;7.50;99.90;;;;;;5057832;28;20211;-89
2022/05/06 12:36:21;;;;;;;3.27;1.40;;;7.60;99.90;;;;;;5060306;28;20212;-89
2022/05/06 12:38:53;;;;;;;6.13;1.90;;;7.60;99.90;;;;;;5060415;28;20284;-89
2022/05/06 12:41:25;;;;;;;5.40;1.60;;;7.70;99.90;;;;;;5060219;28;20252;-89
2022/05/06 12:43:59;;;;;;;5.20;1.90;;;7.70;99.90;;;;;;5058531;28;20212;-90
2022/05/06 12:46:36;;;;;;;7.07;1.40;;;7.60;99.90;;;;;;5059135;28;20249;-89
2022/05/06 12:51:56;;;;;;;5.90;2.33;;;7.50;99.90;;;;;;5061555;28;20286;-89
2022/05/06 12:54:28;;;;;;;4.33;1.57;;;7.50;99.90;;;;;;5058530;28;20279;-89
2022/05/06 12:56:59;;;;;;;3.67;1.30;;;7.60;99.90;;;;;;5061424;28;20216;-88
2022/05/06 12:59:32;;;;;;;4.50;1.60;;;7.60;99.90;;;;;;5059467;28;20215;-89
2022/05/06 13:02:07;;;;;;;8.17;1.57;;;7.70;99.90;;;;;;5069689;28;20211;-88
2022/05/06 13:04:38;;;;;;;3.07;1.30;;;7.70;99.90;;;;;;5071042;28;20195;-89
2022/05/06 13:07:16;;;;;;;2.93;1.37;;;7.70;99.90;;;;;;5061051;28;20218;-90
2022/05/06 13:09:47;;;;;;;5.63;2.20;;;7.70;99.90;;;;;;5060028;28;20666;-89
2022/05/06 13:12:18;;;;;;;3.83;1.40;;;7.70;99.90;;;;;;5059402;28;20263;-89
2022/05/06 13:14:49;;;;;;;6.33;1.60;;;7.70;99.90;;;;;;5059410;28;20220;-89
2022/05/06 13:17:23;;;;;;;3.23;1.53;;;7.80;99.90;;;;;;5059638;28;20251;-89
2022/05/06 13:19:55;;;;;;;6.77;1.50;;;7.80;99.90;;;;;;5060166;28;20238;-89
2022/05/06 13:22:27;;;;;;;5.57;1.60;;;7.90;99.90;;;;;;5060018;28;20658;-89
2022/05/06 13:24:58;;;;;;;3.60;1.40;;;7.90;99.90;;;;;;5093493;28;20237;-88
2022/05/06 13:27:30;;;;;;;5.57;1.67;;;7.90;99.90;;;;;;5079448;28;20208;-89
2022/05/06 13:30:03;;;;;;;4.57;1.63;;;8.00;99.90;;;;;;5075751;28;20219;-90
2022/05/06 13:32:36;;;;;;;4.60;1.73;;;8.00;99.90;;;;;;5071900;28;20710;-89
2022/05/06 13:35:08;;;;;;;3.40;1.50;;;8.10;99.90;;;;;;5069446;28;20203;-89
2022/05/06 13:37:40;;;;;;;4.33;1.53;;;8.10;99.90;;;;;;5063881;28;20725;-88
2022/05/06 13:40:12;;;;;;;4.90;1.60;;;8.10;99.90;;;;;;5062394;28;20210;-89
2022/05/06 13:42:43;;;;;;;3.77;1.83;;;8.10;99.90;;;;;;5060532;28;20204;-89
2022/05/06 13:45:15;;;;;;;4.30;1.60;;;8.10;99.90;;;;;;5059578;28;20208;-89
2022/05/06 13:47:50;;;;;;;3.97;1.30;;;8.10;99.90;;;;;;5064749;28;20209;-89
2022/05/06 13:53:09;;;;;;;6.20;1.33;;;8.20;99.90;;;;;;5059840;28;20262;-89
2022/05/06 14:01:16;;;;;;;7.70;2.00;;;8.50;99.90;;;;;;5058870;28;20219;-89
2022/05/06 14:03:50;;;;;;;3.13;1.30;;;8.60;99.90;;;;;;5052419;28;20240;-89
2022/05/06 14:06:21;;;;;;;6.00;1.70;;;8.70;99.90;;;;;;5039055;28;20220;-90
2022/05/06 14:08:52;;;;;;;5.93;1.80;;;8.80;99.90;;;;;;5037242;28;20205;-89
2022/05/06 14:11:26;;;;;;;4.23;1.63;;;8.80;99.90;;;;;;5039393;28;20304;-89
2022/05/06 14:13:57;;;;;;;7.13;1.60;;;8.80;99.90;;;;;;5039983;28;20543;-89
2022/05/06 14:16:30;;;;;;;4.60;1.37;;;8.90;99.90;;;;;;5039719;28;20216;-90
2022/05/06 14:19:03;;;;;;;4.43;1.97;;;8.90;99.90;;;;;;5038178;28;20205;-90
2022/05/06 14:21:35;;;;;;;4.50;1.33;;;8.80;99.90;;;;;;5038918;28;20216;-89
2022/05/06 14:24:08;;;;;;;3.27;1.33;;;8.80;99.90;;;;;;5038043;28;20366;-90